Time;durP1;ratioP1;P1;durP2;ratioP2;P2;SDS_P1;SDS_P2;PMS_P1;PMS_P2;Temp;Humidity;BMP_temperature;BMP_pressure;BME280_temperature;BME280_humidity;BME280_pressure;Samples;Min_cycle;Max_cycle;Signal;HPM_P1;HPM_P2
2023/01/31 00:00:07;;;;;;;21.70;9.17;;;3.50;99.90;;;;;;5046987;28;20288;-65
2023/01/31 00:02:37;;;;;;;28.27;10.07;;;3.50;99.90;;;;;;5049107;28;20231;-65
2023/01/31 00:05:06;;;;;;;31.33;9.40;;;3.40;99.90;;;;;;5050261;28;20274;-65
2023/01/31 00:07:35;;;;;;;28.20;9.00;;;3.40;99.90;;;;;;5044574;28;20250;-65
2023/01/31 00:10:04;;;;;;;28.60;8.83;;;3.40;99.90;;;;;;5051146;28;20217;-65
2023/01/31 00:12:33;;;;;;;34.77;8.63;;;3.30;99.90;;;;;;5047988;28;20627;-65
2023/01/31 00:15:02;;;;;;;31.27;9.83;;;3.30;99.90;;;;;;5050593;28;20675;-65
2023/01/31 00:17:30;;;;;;;32.60;9.70;;;3.30;99.90;;;;;;5047008;28;20224;-64
2023/01/31 00:20:00;;;;;;;29.00;9.87;;;3.40;99.90;;;;;;5058892;28;20197;-65
2023/01/31 00:22:28;;;;;;;34.03;10.10;;;3.40;99.90;;;;;;5052522;28;20231;-65
2023/01/31 00:24:57;;;;;;;31.33;9.13;;;3.40;99.90;;;;;;5053815;28;20199;-65
2023/01/31 00:27:25;;;;;;;37.47;11.63;;;3.40;99.90;;;;;;5048434;28;20210;-65
2023/01/31 00:29:54;;;;;;;33.27;10.03;;;3.40;99.90;;;;;;5052716;28;20196;-65
2023/01/31 00:32:24;;;;;;;30.07;8.97;;;3.30;99.90;;;;;;5051249;28;20195;-65
2023/01/31 00:34:53;;;;;;;29.67;9.63;;;3.20;99.90;;;;;;5053416;28;20189;-65
2023/01/31 00:37:23;;;;;;;35.20;9.60;;;3.20;99.90;;;;;;5055765;28;20189;-65
2023/01/31 00:39:51;;;;;;;33.07;9.40;;;3.10;99.90;;;;;;5053484;28;20296;-65
2023/01/31 00:42:19;;;;;;;38.27;10.53;;;3.10;99.90;;;;;;5065246;28;20769;-65
2023/01/31 00:44:48;;;;;;;29.50;9.20;;;3.10;99.90;;;;;;5044066;28;20192;-65
2023/01/31 00:47:16;;;;;;;33.87;8.93;;;3.10;99.90;;;;;;5048636;28;20856;-65
2023/01/31 00:49:46;;;;;;;34.83;9.33;;;3.10;99.90;;;;;;5049874;28;20223;-65
2023/01/31 00:52:15;;;;;;;42.33;10.40;;;3.10;99.90;;;;;;5053087;28;20212;-65
2023/01/31 00:54:44;;;;;;;49.60;10.03;;;3.20;99.90;;;;;;5047916;28;20820;-65
2023/01/31 00:57:13;;;;;;;27.00;9.60;;;3.20;99.90;;;;;;5051079;28;20200;-65
2023/01/31 00:59:41;;;;;;;27.83;8.80;;;3.20;99.90;;;;;;5049988;28;20193;-65
2023/01/31 01:02:09;;;;;;;30.27;9.83;;;3.10;99.90;;;;;;5050083;28;20192;-65
2023/01/31 01:04:38;;;;;;;32.53;10.23;;;3.10;99.90;;;;;;5048931;28;20289;-65
2023/01/31 01:07:06;;;;;;;25.37;9.67;;;3.00;99.90;;;;;;5045612;28;20658;-65
2023/01/31 01:09:34;;;;;;;34.73;9.97;;;2.90;99.90;;;;;;5054397;28;21237;-65
2023/01/31 01:12:05;;;;;;;28.77;9.30;;;2.90;99.90;;;;;;5045240;28;20213;-65
2023/01/31 01:14:34;;;;;;;34.80;9.60;;;2.90;99.90;;;;;;5065071;28;20274;-65
2023/01/31 01:17:03;;;;;;;31.20;10.37;;;3.00;99.90;;;;;;5049524;28;20251;-65
2023/01/31 01:19:32;;;;;;;41.87;9.53;;;3.10;99.90;;;;;;5054582;28;20199;-65
2023/01/31 01:22:02;;;;;;;30.40;8.97;;;3.00;99.90;;;;;;5050771;28;20220;-65
2023/01/31 01:24:30;;;;;;;22.27;8.67;;;3.00;99.90;;;;;;5045537;28;20189;-65
2023/01/31 01:26:59;;;;;;;26.00;10.07;;;2.90;99.90;;;;;;5044763;28;20195;-64
2023/01/31 01:29:28;;;;;;;35.93;10.27;;;2.80;99.90;;;;;;5056958;28;20193;-65
2023/01/31 01:31:57;;;;;;;46.63;9.80;;;2.80;99.90;;;;;;5046978;28;20219;-65
2023/01/31 01:34:25;;;;;;;28.73;9.03;;;2.80;99.90;;;;;;5065075;28;20286;-65
2023/01/31 01:36:54;;;;;;;30.00;10.07;;;2.90;99.90;;;;;;5053829;28;20180;-64
2023/01/31 01:39:22;;;;;;;31.83;9.47;;;2.80;99.90;;;;;;5050716;28;20211;-65
2023/01/31 01:41:51;;;;;;;28.60;8.97;;;2.80;99.90;;;;;;5053641;28;20198;-64
2023/01/31 01:44:50;;;;;;;28.37;9.03;;;2.80;99.90;;;;;;5060069;28;20197;-65
2023/01/31 01:47:28;;;;;;;29.07;8.73;;;2.80;99.90;;;;;;5047409;28;20222;-64
2023/01/31 01:50:01;;;;;;;32.73;9.50;;;2.90;99.90;;;;;;5048776;28;20793;-65
2023/01/31 01:52:31;;;;;;;37.53;10.07;;;2.90;99.90;;;;;;5041158;28;20227;-65
2023/01/31 01:55:04;;;;;;;30.57;9.47;;;3.00;99.90;;;;;;5047460;28;20189;-65
2023/01/31 01:57:37;;;;;;;26.80;8.70;;;3.00;99.90;;;;;;5048675;28;20875;-65
2023/01/31 02:00:14;;;;;;;29.20;9.20;;;2.90;99.90;;;;;;5058096;28;20196;-65
2023/01/31 02:02:44;;;;;;;22.37;8.43;;;2.90;99.90;;;;;;5080230;28;20188;-65
2023/01/31 02:05:15;;;;;;;36.83;9.37;;;3.00;99.90;;;;;;5048228;28;20201;-65
2023/01/31 02:07:44;;;;;;;33.83;8.50;;;2.90;99.90;;;;;;5046332;28;20228;-64
2023/01/31 02:10:19;;;;;;;25.10;8.53;;;2.90;99.90;;;;;;5053592;28;20202;-65
2023/01/31 02:12:47;;;;;;;33.47;8.57;;;2.80;99.90;;;;;;5045955;28;20211;-65
2023/01/31 02:15:17;;;;;;;38.87;8.70;;;2.80;99.90;;;;;;5049856;28;20196;-65
2023/01/31 02:17:46;;;;;;;26.20;8.83;;;2.80;99.90;;;;;;5043183;28;20196;-64
2023/01/31 02:20:33;;;;;;;26.73;8.67;;;2.80;99.90;;;;;;5051060;28;20193;-65
2023/01/31 02:23:22;;;;;;;39.93;9.53;;;2.80;99.90;;;;;;5065387;28;20196;-65
2023/01/31 02:26:08;;;;;;;32.67;9.43;;;2.70;99.90;;;;;;5047263;28;20196;-65
2023/01/31 02:28:59;;;;;;;30.57;8.10;;;2.60;99.90;;;;;;5043348;28;20642;-65
2023/01/31 02:32:01;;;;;;;25.30;8.53;;;2.60;99.90;;;;;;5056433;28;20208;-65
2023/01/31 02:34:37;;;;;;;31.60;9.57;;;2.50;99.90;;;;;;5041297;28;20277;-65
2023/01/31 02:37:17;;;;;;;33.13;9.60;;;2.50;99.90;;;;;;5050474;28;20649;-65
2023/01/31 02:39:54;;;;;;;34.83;10.47;;;2.40;99.90;;;;;;5043084;28;20531;-65
2023/01/31 02:42:34;;;;;;;27.53;9.90;;;2.40;99.90;;;;;;5047682;28;20267;-65
2023/01/31 02:45:08;;;;;;;27.37;9.30;;;2.40;99.90;;;;;;5061558;28;20188;-65
2023/01/31 02:47:52;;;;;;;28.23;9.70;;;2.40;99.90;;;;;;5046948;28;20200;-65
2023/01/31 02:50:27;;;;;;;25.37;9.97;;;2.30;99.90;;;;;;5044634;28;20207;-65
2023/01/31 02:52:59;;;;;;;33.10;9.90;;;2.30;99.90;;;;;;5046974;28;20213;-65
2023/01/31 02:58:22;;;;;;;40.67;9.77;;;2.30;99.90;;;;;;5041554;28;20212;-65
2023/01/31 03:00:51;;;;;;;36.77;10.47;;;2.30;99.90;;;;;;5050453;28;20820;-65
2023/01/31 03:03:22;;;;;;;24.20;9.70;;;2.30;99.90;;;;;;5050128;28;20185;-65
2023/01/31 03:06:34;;;;;;;24.90;9.10;;;2.30;99.90;;;;;;5050805;28;20558;-65
2023/01/31 03:09:07;;;;;;;28.37;9.47;;;2.30;99.90;;;;;;5047153;28;20294;-65
2023/01/31 03:11:43;;;;;;;32.17;9.43;;;2.40;99.90;;;;;;5066048;28;20583;-65
2023/01/31 03:14:29;;;;;;;30.53;9.27;;;2.40;99.90;;;;;;5047621;28;20207;-65
2023/01/31 03:20:03;;;;;;;39.50;9.83;;;2.40;99.90;;;;;;5049343;28;20284;-65
2023/01/31 03:22:36;;;;;;;35.43;9.90;;;2.40;99.90;;;;;;5062269;28;20283;-65
2023/01/31 03:25:06;;;;;;;27.93;8.30;;;2.50;99.90;;;;;;5042696;28;20203;-65
2023/01/31 03:27:35;;;;;;;29.67;8.93;;;2.50;99.90;;;;;;5052020;28;20193;-65
2023/01/31 03:30:10;;;;;;;23.20;8.20;;;2.50;99.90;;;;;;5067504;28;20193;-64
2023/01/31 03:32:43;;;;;;;27.33;8.87;;;2.50;99.90;;;;;;5052531;28;20231;-65
2023/01/31 03:35:12;;;;;;;36.60;8.63;;;2.40;99.90;;;;;;5056412;28;20199;-65
2023/01/31 03:37:48;;;;;;;25.63;8.90;;;2.50;99.90;;;;;;5051514;28;20283;-65
2023/01/31 03:40:21;;;;;;;30.00;9.20;;;2.40;99.90;;;;;;5048854;28;20744;-65
2023/01/31 03:42:56;;;;;;;30.93;8.20;;;2.30;99.90;;;;;;5053955;28;20197;-65
2023/01/31 03:45:30;;;;;;;27.07;8.43;;;2.30;99.90;;;;;;5056696;28;20205;-65
2023/01/31 03:48:02;;;;;;;26.67;9.20;;;2.20;99.90;;;;;;5048701;28;20204;-65
2023/01/31 03:50:37;;;;;;;23.03;8.50;;;2.10;99.90;;;;;;5053605;28;20187;-65
2023/01/31 03:53:10;;;;;;;26.63;8.53;;;2.00;99.90;;;;;;5042624;28;20201;-65
2023/01/31 03:55:44;;;;;;;30.97;9.13;;;1.90;99.90;;;;;;5052769;28;20192;-65
2023/01/31 03:58:18;;;;;;;30.13;8.83;;;1.90;99.90;;;;;;5053045;28;20197;-64
2023/01/31 04:00:50;;;;;;;28.40;8.70;;;1.80;99.90;;;;;;5051614;28;20200;-65
2023/01/31 04:03:24;;;;;;;25.50;8.43;;;1.80;99.90;;;;;;5055474;28;20192;-65
2023/01/31 04:05:52;;;;;;;20.57;9.33;;;1.80;99.90;;;;;;5053377;28;20653;-65
2023/01/31 04:08:22;;;;;;;26.77;7.93;;;1.70;99.90;;;;;;5052034;28;20233;-64
2023/01/31 04:10:51;;;;;;;27.47;8.20;;;1.70;99.90;;;;;;5052126;28;20670;-64
2023/01/31 04:13:20;;;;;;;32.60;9.20;;;1.70;99.90;;;;;;5050701;28;21234;-64
2023/01/31 04:15:49;;;;;;;34.17;8.80;;;1.60;99.90;;;;;;5050899;28;20284;-65
2023/01/31 04:18:17;;;;;;;23.07;8.90;;;1.60;99.90;;;;;;5068526;28;20204;-65
2023/01/31 04:20:46;;;;;;;26.37;8.20;;;1.60;99.90;;;;;;5047283;28;20196;-65
2023/01/31 04:23:14;;;;;;;25.73;8.63;;;1.60;99.90;;;;;;5084046;28;20188;-64
2023/01/31 04:25:43;;;;;;;26.37;8.40;;;1.60;99.90;;;;;;5051309;28;20214;-64
2023/01/31 04:28:12;;;;;;;33.40;8.23;;;1.50;99.90;;;;;;5051214;28;20287;-64
2023/01/31 04:30:40;;;;;;;26.47;7.83;;;1.40;99.90;;;;;;5048169;28;20208;-65
2023/01/31 04:33:08;;;;;;;28.47;8.80;;;1.50;99.90;;;;;;5054775;28;20307;-64
2023/01/31 04:35:40;;;;;;;25.20;8.33;;;1.50;99.90;;;;;;5049569;28;20199;-64
2023/01/31 04:38:08;;;;;;;29.07;8.10;;;1.50;99.90;;;;;;5052117;28;20318;-64
2023/01/31 04:40:37;;;;;;;27.50;9.23;;;1.60;99.90;;;;;;5057174;28;20271;-64
2023/01/31 04:43:06;;;;;;;29.77;8.50;;;1.60;99.90;;;;;;5082296;28;20563;-65
2023/01/31 04:45:35;;;;;;;25.73;7.97;;;1.70;99.90;;;;;;5049748;28;20193;-65
2023/01/31 04:48:03;;;;;;;28.63;9.00;;;1.70;99.90;;;;;;5050931;28;20208;-65
2023/01/31 04:50:32;;;;;;;30.67;8.90;;;1.60;99.90;;;;;;5046254;28;20209;-64
2023/01/31 04:53:00;;;;;;;26.50;8.20;;;1.70;99.90;;;;;;5051875;28;20205;-65
2023/01/31 04:55:28;;;;;;;26.30;8.90;;;1.70;99.90;;;;;;5049188;28;20192;-65
2023/01/31 04:57:57;;;;;;;23.00;8.27;;;1.70;99.90;;;;;;5065511;28;20202;-64
2023/01/31 05:00:27;;;;;;;23.43;8.17;;;1.80;99.90;;;;;;5047238;28;20254;-65
2023/01/31 05:03:11;;;;;;;31.07;8.10;;;1.80;99.90;;;;;;5060854;28;20993;-64
2023/01/31 05:05:39;;;;;;;32.43;8.80;;;1.80;99.90;;;;;;5049033;28;20189;-64
2023/01/31 05:08:08;;;;;;;37.77;9.23;;;1.90;99.90;;;;;;5052516;28;20239;-64
2023/01/31 05:10:36;;;;;;;25.03;7.80;;;2.10;99.90;;;;;;5043522;28;20197;-65
2023/01/31 05:13:05;;;;;;;30.93;8.50;;;2.20;99.90;;;;;;5051599;28;20213;-64
2023/01/31 05:15:37;;;;;;;25.63;8.40;;;2.20;99.90;;;;;;5033255;28;20288;-65
2023/01/31 05:18:05;;;;;;;30.37;8.63;;;2.20;99.90;;;;;;5054622;28;20196;-65
2023/01/31 05:20:38;;;;;;;35.03;9.47;;;2.30;99.90;;;;;;5056726;28;20686;-64
2023/01/31 05:23:07;;;;;;;32.30;9.00;;;2.40;99.90;;;;;;5052212;28;20836;-65
2023/01/31 05:25:37;;;;;;;32.17;8.77;;;2.40;99.90;;;;;;5044892;28;20284;-64
2023/01/31 05:28:05;;;;;;;24.80;8.93;;;2.40;99.90;;;;;;5055470;28;20551;-64
2023/01/31 05:30:36;;;;;;;28.07;8.43;;;2.40;99.90;;;;;;5045281;28;20217;-65
2023/01/31 05:33:04;;;;;;;24.90;8.90;;;2.40;99.90;;;;;;5053380;28;20211;-64
2023/01/31 05:35:33;;;;;;;23.23;8.87;;;2.40;99.90;;;;;;5047965;28;20291;-65
2023/01/31 05:38:02;;;;;;;29.73;10.33;;;2.40;99.90;;;;;;5056907;28;20204;-64
2023/01/31 05:40:30;;;;;;;33.80;10.00;;;2.50;99.90;;;;;;5047151;28;20203;-64
2023/01/31 05:43:00;;;;;;;28.37;9.90;;;2.50;99.90;;;;;;5053078;28;20188;-65
2023/01/31 05:45:29;;;;;;;27.80;9.60;;;2.50;99.90;;;;;;5057623;28;20247;-65
2023/01/31 05:48:00;;;;;;;24.77;8.97;;;2.50;99.90;;;;;;5079515;28;20217;-65
2023/01/31 05:50:28;;;;;;;29.47;9.90;;;2.60;99.90;;;;;;5076682;28;20196;-65
2023/01/31 05:53:01;;;;;;;22.53;9.33;;;2.60;99.90;;;;;;5049426;28;20193;-65
2023/01/31 05:55:30;;;;;;;25.47;8.90;;;2.60;99.90;;;;;;5045684;28;20556;-65
2023/01/31 05:57:59;;;;;;;24.80;8.97;;;2.60;99.90;;;;;;5065524;28;20622;-65
2023/01/31 06:00:29;;;;;;;28.70;9.40;;;2.70;99.90;;;;;;5050059;28;20667;-65
2023/01/31 06:02:59;;;;;;;22.80;9.50;;;2.70;99.90;;;;;;5047486;28;20207;-65
2023/01/31 06:05:28;;;;;;;23.67;8.47;;;2.70;99.90;;;;;;5044212;28;20202;-65
2023/01/31 06:07:56;;;;;;;25.47;9.07;;;2.80;99.90;;;;;;5063187;28;20239;-65
2023/01/31 06:10:26;;;;;;;22.30;8.40;;;2.80;99.90;;;;;;5044331;28;20242;-65
2023/01/31 06:12:54;;;;;;;21.07;8.63;;;2.80;99.90;;;;;;5049322;28;20218;-65
2023/01/31 06:15:22;;;;;;;30.00;9.00;;;2.80;99.90;;;;;;5051173;28;20196;-65
2023/01/31 06:17:51;;;;;;;26.37;8.83;;;2.80;99.90;;;;;;5056568;28;20210;-65
2023/01/31 06:20:20;;;;;;;32.27;8.90;;;2.80;99.90;;;;;;5055766;28;20566;-65
2023/01/31 06:22:48;;;;;;;30.73;9.27;;;2.80;99.90;;;;;;5045814;28;20531;-65
2023/01/31 06:25:17;;;;;;;24.33;9.30;;;2.80;99.90;;;;;;5079165;28;20552;-65
2023/01/31 06:27:46;;;;;;;18.77;8.47;;;2.80;99.90;;;;;;5039043;28;20193;-65
2023/01/31 06:30:15;;;;;;;28.17;8.97;;;2.80;99.90;;;;;;5040788;28;20291;-65
2023/01/31 06:32:43;;;;;;;24.80;8.43;;;2.80;99.90;;;;;;5039241;28;20254;-65
2023/01/31 06:35:11;;;;;;;26.10;8.73;;;2.90;99.90;;;;;;5049894;28;20212;-65
2023/01/31 06:37:41;;;;;;;27.50;9.47;;;2.90;99.90;;;;;;5079513;28;20196;-65
2023/01/31 06:40:11;;;;;;;29.40;8.60;;;2.90;99.90;;;;;;5050015;28;20196;-65
2023/01/31 06:42:39;;;;;;;23.63;9.20;;;2.80;99.90;;;;;;5052407;28;20279;-65
2023/01/31 06:45:09;;;;;;;23.67;9.60;;;2.80;99.90;;;;;;5044528;28;20184;-65
2023/01/31 06:47:37;;;;;;;25.40;9.13;;;2.80;99.90;;;;;;5043363;28;20193;-65
2023/01/31 06:50:06;;;;;;;26.77;8.53;;;2.90;99.90;;;;;;5052742;28;20215;-65
2023/01/31 06:52:34;;;;;;;25.17;8.53;;;2.90;99.90;;;;;;5042171;28;20197;-65
2023/01/31 06:55:05;;;;;;;31.00;9.00;;;2.90;99.90;;;;;;5029823;28;20582;-65
2023/01/31 06:57:33;;;;;;;16.00;7.77;;;2.90;99.90;;;;;;5049269;28;20200;-65
2023/01/31 07:00:02;;;;;;;21.80;7.50;;;3.00;99.90;;;;;;5053646;28;20192;-65
2023/01/31 07:02:31;;;;;;;30.27;8.30;;;3.00;99.90;;;;;;5052917;28;20230;-65
2023/01/31 07:04:59;;;;;;;31.97;8.70;;;3.00;99.90;;;;;;5045318;28;20570;-65
2023/01/31 07:07:28;;;;;;;31.37;8.60;;;3.00;99.90;;;;;;5036522;28;20225;-65
2023/01/31 07:09:56;;;;;;;25.73;8.13;;;3.10;99.90;;;;;;5060624;28;20202;-65
2023/01/31 07:12:26;;;;;;;20.50;7.67;;;3.10;99.90;;;;;;5046790;28;20211;-65
2023/01/31 07:14:55;;;;;;;23.60;8.03;;;3.30;99.90;;;;;;5049112;28;20216;-65
2023/01/31 07:17:23;;;;;;;34.70;8.00;;;3.30;99.90;;;;;;5056361;28;20686;-65
2023/01/31 07:19:52;;;;;;;22.13;7.70;;;3.40;99.90;;;;;;5046942;28;20188;-65
2023/01/31 07:22:20;;;;;;;26.43;8.07;;;3.40;99.90;;;;;;5048916;28;20204;-65
2023/01/31 07:24:49;;;;;;;25.63;7.60;;;3.50;99.90;;;;;;5045692;28;20256;-65
2023/01/31 07:27:18;;;;;;;23.60;8.13;;;3.50;99.90;;;;;;5049237;28;20200;-65
2023/01/31 07:29:48;;;;;;;24.07;7.87;;;3.60;99.90;;;;;;5050900;28;20199;-65
2023/01/31 07:32:16;;;;;;;23.93;7.80;;;3.70;99.90;;;;;;5062498;28;20531;-65
2023/01/31 07:34:45;;;;;;;28.23;8.10;;;3.70;99.90;;;;;;5047210;28;20667;-65
2023/01/31 07:37:13;;;;;;;22.13;7.37;;;3.70;99.90;;;;;;5042907;28;20204;-65
2023/01/31 07:39:42;;;;;;;32.13;8.37;;;3.90;99.90;;;;;;5058484;28;20673;-65
2023/01/31 07:42:10;;;;;;;20.33;7.60;;;3.90;99.90;;;;;;5040966;28;20197;-65
2023/01/31 07:44:38;;;;;;;20.77;7.03;;;3.90;99.90;;;;;;5049417;28;20192;-65
2023/01/31 07:47:10;;;;;;;21.47;7.03;;;4.00;99.90;;;;;;5047222;28;20190;-67
2023/01/31 07:49:38;;;;;;;33.43;7.03;;;4.00;99.90;;;;;;5047249;28;20204;-65
2023/01/31 07:52:06;;;;;;;30.60;7.93;;;4.10;99.90;;;;;;5056955;28;20185;-65
2023/01/31 07:54:36;;;;;;;30.40;7.30;;;4.20;99.90;;;;;;5048455;28;20244;-65
2023/01/31 07:57:04;;;;;;;23.77;7.53;;;4.20;99.90;;;;;;5065810;28;20213;-65
2023/01/31 07:59:33;;;;;;;16.80;7.00;;;4.20;99.90;;;;;;5048396;28;20200;-65
2023/01/31 08:04:51;;;;;;;25.50;6.63;;;4.30;99.90;;;;;;5074519;28;20201;-65
2023/01/31 08:07:20;;;;;;;24.20;6.57;;;4.30;99.90;;;;;;5038352;28;20314;-65
2023/01/31 08:09:49;;;;;;;27.00;6.27;;;4.50;99.90;;;;;;5046414;28;20197;-65
2023/01/31 08:12:17;;;;;;;20.93;6.47;;;4.70;99.90;;;;;;5049293;28;20197;-65
2023/01/31 08:14:45;;;;;;;17.63;5.33;;;4.70;99.90;;;;;;5039333;28;20211;-65
2023/01/31 08:17:15;;;;;;;24.03;6.13;;;4.80;99.90;;;;;;5044102;28;20201;-65
2023/01/31 08:19:43;;;;;;;18.80;5.60;;;4.90;99.90;;;;;;5049225;28;20215;-65
2023/01/31 08:22:13;;;;;;;21.60;5.60;;;5.00;99.90;;;;;;5056903;28;20280;-65
2023/01/31 08:24:42;;;;;;;16.80;5.33;;;5.10;99.90;;;;;;5047354;28;20204;-65
2023/01/31 08:27:12;;;;;;;19.10;5.37;;;5.20;99.90;;;;;;5034088;28;20204;-65
2023/01/31 08:29:43;;;;;;;23.10;6.20;;;5.30;99.90;;;;;;5048328;28;20204;-65
2023/01/31 08:32:12;;;;;;;26.20;5.93;;;5.40;99.90;;;;;;5054836;28;20225;-65
2023/01/31 08:34:42;;;;;;;17.67;5.57;;;5.50;99.90;;;;;;5045944;28;20216;-65
2023/01/31 08:37:10;;;;;;;22.67;5.83;;;5.60;99.90;;;;;;5067542;28;20286;-65
2023/01/31 08:39:42;;;;;;;17.60;5.33;;;5.70;99.90;;;;;;5052115;28;20935;-65
2023/01/31 08:42:10;;;;;;;23.17;5.40;;;5.70;99.90;;;;;;5054500;28;20259;-65
2023/01/31 08:44:39;;;;;;;23.87;5.67;;;5.70;99.90;;;;;;5052384;28;20204;-65
2023/01/31 08:47:07;;;;;;;18.53;4.67;;;5.80;99.90;;;;;;5061805;28;20194;-65
2023/01/31 08:49:35;;;;;;;20.57;5.00;;;6.00;99.90;;;;;;5058875;28;20200;-65
2023/01/31 08:52:04;;;;;;;19.63;5.57;;;6.10;99.90;;;;;;5050050;28;20223;-66
2023/01/31 08:54:33;;;;;;;18.90;5.30;;;6.20;99.90;;;;;;5048401;28;20193;-65
2023/01/31 08:57:02;;;;;;;23.03;5.73;;;6.20;99.90;;;;;;5053818;28;20192;-65
2023/01/31 08:59:31;;;;;;;14.73;5.40;;;6.30;99.90;;;;;;5042582;28;20195;-65
2023/01/31 09:01:59;;;;;;;20.93;6.20;;;6.30;99.90;;;;;;5054121;28;20204;-65
2023/01/31 09:04:28;;;;;;;20.70;6.17;;;6.30;99.90;;;;;;5063950;28;20199;-65
2023/01/31 09:06:58;;;;;;;18.63;5.53;;;6.30;99.90;;;;;;5053894;28;20193;-65
2023/01/31 09:09:26;;;;;;;16.50;5.57;;;6.30;99.90;;;;;;5045123;28;20201;-65
2023/01/31 09:11:57;;;;;;;20.70;6.00;;;6.30;99.90;;;;;;5052120;28;20220;-65
2023/01/31 09:14:27;;;;;;;21.73;5.77;;;6.40;99.90;;;;;;5049181;28;20207;-65
2023/01/31 09:16:56;;;;;;;17.80;6.03;;;6.30;99.90;;;;;;5068652;28;20585;-65
2023/01/31 09:19:24;;;;;;;18.20;5.43;;;6.30;99.90;;;;;;5043973;28;20550;-65
2023/01/31 09:21:52;;;;;;;24.43;6.00;;;6.30;99.90;;;;;;5053904;28;20287;-65
2023/01/31 09:24:21;;;;;;;20.90;5.10;;;6.30;99.90;;;;;;5045547;28;20199;-65
2023/01/31 09:26:49;;;;;;;12.70;5.73;;;6.40;99.90;;;;;;5051987;28;20666;-65
2023/01/31 09:29:18;;;;;;;20.77;5.77;;;6.30;99.90;;;;;;5066907;28;20666;-65
2023/01/31 09:31:51;;;;;;;21.23;5.67;;;6.40;99.90;;;;;;5053499;28;20208;-65
2023/01/31 09:34:20;;;;;;;23.10;5.20;;;6.40;99.90;;;;;;5049407;28;20273;-65
2023/01/31 09:36:49;;;;;;;19.70;5.03;;;6.40;99.90;;;;;;5054414;28;20219;-65
2023/01/31 09:39:17;;;;;;;20.60;5.53;;;6.40;99.90;;;;;;5050335;28;20200;-65
2023/01/31 09:41:50;;;;;;;17.00;5.33;;;6.40;99.90;;;;;;5053466;28;20207;-65
2023/01/31 09:44:23;;;;;;;20.70;5.57;;;6.40;99.90;;;;;;5053695;28;20581;-65
2023/01/31 09:46:59;;;;;;;26.40;5.83;;;6.40;99.90;;;;;;5060454;28;20689;-65
2023/01/31 09:49:31;;;;;;;14.20;5.23;;;6.50;99.90;;;;;;5053620;28;20299;-65
2023/01/31 09:52:02;;;;;;;19.60;5.40;;;6.50;99.90;;;;;;5039895;28;20643;-65
2023/01/31 09:54:35;;;;;;;23.00;5.63;;;6.60;99.90;;;;;;5044964;28;20273;-65
2023/01/31 09:57:19;;;;;;;22.03;4.77;;;6.60;99.90;;;;;;5053044;28;20213;-65
2023/01/31 09:59:52;;;;;;;31.37;5.70;;;6.70;99.90;;;;;;5052985;28;20197;-65
2023/01/31 10:02:42;;;;;;;20.67;5.30;;;6.60;99.90;;;;;;5052328;28;20200;-65
2023/01/31 10:05:20;;;;;;;22.47;5.27;;;6.70;99.90;;;;;;5054470;28;20306;-65
2023/01/31 10:08:00;;;;;;;20.10;5.50;;;6.80;99.90;;;;;;5051410;28;20236;-65
2023/01/31 10:10:34;;;;;;;21.40;5.37;;;6.90;99.90;;;;;;5051372;28;20625;-65
2023/01/31 10:13:09;;;;;;;23.83;5.33;;;7.10;99.90;;;;;;5051956;28;20195;-65
2023/01/31 10:15:43;;;;;;;18.87;4.63;;;7.50;99.90;;;;;;5040802;28;20208;-65
2023/01/31 10:18:17;;;;;;;23.03;5.50;;;7.70;99.90;;;;;;5055641;28;20193;-65
2023/01/31 10:20:50;;;;;;;21.53;4.97;;;7.60;99.90;;;;;;5052760;28;20196;-65
2023/01/31 10:23:25;;;;;;;20.10;5.47;;;7.50;99.90;;;;;;5052688;28;20193;-65
2023/01/31 10:25:59;;;;;;;14.63;5.20;;;7.40;99.90;;;;;;5048180;28;20180;-66
2023/01/31 10:28:34;;;;;;;21.80;5.37;;;7.30;99.90;;;;;;5053048;28;20192;-65
2023/01/31 10:31:08;;;;;;;16.97;5.20;;;7.30;99.90;;;;;;5047050;28;20200;-65
2023/01/31 10:33:44;;;;;;;17.13;5.40;;;7.30;99.90;;;;;;5051533;28;20220;-65
2023/01/31 10:36:25;;;;;;;16.43;4.53;;;7.50;99.90;;;;;;5056518;28;20208;-66
2023/01/31 10:39:00;;;;;;;13.53;4.60;;;7.70;99.90;;;;;;5054490;28;20669;-65
2023/01/31 10:41:41;;;;;;;19.43;5.40;;;7.90;99.90;;;;;;5052880;28;20231;-65
2023/01/31 10:44:20;;;;;;;17.40;4.43;;;7.80;99.90;;;;;;5051637;28;20207;-65
2023/01/31 10:46:49;;;;;;;18.60;4.93;;;8.00;99.90;;;;;;5051372;28;20184;-65
2023/01/31 10:49:24;;;;;;;19.23;5.17;;;8.30;99.90;;;;;;5059744;28;20200;-65
2023/01/31 10:52:15;;;;;;;17.47;4.20;;;8.40;99.90;;;;;;5040165;28;20207;-65
2023/01/31 10:55:00;;;;;;;14.17;4.17;;;8.60;99.90;;;;;;5055691;28;20192;-66
2023/01/31 10:57:29;;;;;;;11.50;4.57;;;8.70;99.90;;;;;;5062966;28;20323;-65
2023/01/31 10:59:57;;;;;;;16.10;4.70;;;8.90;99.90;;;;;;5052379;28;20197;-65
2023/01/31 11:02:28;;;;;;;15.17;4.83;;;8.80;99.90;;;;;;5063751;28;20201;-66
2023/01/31 11:04:59;;;;;;;12.57;4.53;;;8.70;99.90;;;;;;5082584;28;20223;-66
2023/01/31 11:07:29;;;;;;;13.87;4.47;;;8.70;99.90;;;;;;5048030;28;20234;-65
2023/01/31 11:09:58;;;;;;;13.00;4.70;;;8.60;99.90;;;;;;5081091;28;20201;-66
2023/01/31 11:12:41;;;;;;;14.70;4.33;;;8.70;99.90;;;;;;5053907;28;20199;-66
2023/01/31 11:15:17;;;;;;;16.03;5.17;;;8.80;99.90;;;;;;5053789;28;20193;-66
2023/01/31 11:17:47;;;;;;;19.03;4.77;;;8.80;99.90;;;;;;5047407;28;20654;-66
2023/01/31 11:20:27;;;;;;;22.73;5.47;;;8.70;99.90;;;;;;5050050;28;20197;-66
2023/01/31 11:22:57;;;;;;;22.47;5.50;;;8.80;99.90;;;;;;5049851;28;20306;-65
2023/01/31 11:25:28;;;;;;;16.13;4.83;;;8.90;99.90;;;;;;5052536;28;20823;-65
2023/01/31 11:27:59;;;;;;;16.57;4.67;;;9.00;99.90;;;;;;5059376;28;20221;-66
2023/01/31 11:30:31;;;;;;;14.87;4.20;;;9.20;99.90;;;;;;5052404;28;20200;-66
2023/01/31 11:32:59;;;;;;;14.03;4.03;;;9.30;99.90;;;;;;5051053;28;20642;-66
2023/01/31 11:35:31;;;;;;;17.90;4.73;;;9.50;99.90;;;;;;5069221;28;20203;-65
2023/01/31 11:38:02;;;;;;;17.07;4.57;;;9.90;99.90;;;;;;5031698;28;20220;-66
2023/01/31 11:40:33;;;;;;;19.13;4.37;;;10.10;99.90;;;;;;5050711;28;20212;-66
2023/01/31 11:43:03;;;;;;;18.23;4.43;;;10.10;99.90;;;;;;5078721;28;20197;-66
2023/01/31 11:45:33;;;;;;;15.87;5.07;;;10.00;99.90;;;;;;5048646;28;20219;-66
2023/01/31 11:48:11;;;;;;;17.53;4.13;;;9.90;99.90;;;;;;5050669;28;20592;-66
2023/01/31 11:50:43;;;;;;;19.23;5.13;;;9.80;99.90;;;;;;5045765;28;20204;-66
2023/01/31 11:53:19;;;;;;;19.87;4.53;;;9.90;99.90;;;;;;5067062;28;20205;-66
2023/01/31 11:55:49;;;;;;;17.13;5.03;;;9.80;99.90;;;;;;5055627;28;20234;-66
2023/01/31 11:58:20;;;;;;;14.87;4.47;;;9.70;99.90;;;;;;5050812;28;20940;-65
2023/01/31 12:00:58;;;;;;;22.40;4.73;;;9.60;99.90;;;;;;5045602;28;20208;-66
2023/01/31 12:03:28;;;;;;;21.57;4.93;;;9.40;99.90;;;;;;5062322;28;20208;-66
2023/01/31 12:06:03;;;;;;;17.33;4.53;;;9.30;99.90;;;;;;5063456;28;20329;-66
2023/01/31 12:08:34;;;;;;;23.17;5.67;;;9.20;99.90;;;;;;5051048;28;20256;-66
2023/01/31 12:11:05;;;;;;;22.63;5.33;;;9.10;99.90;;;;;;5046605;28;20196;-66
2023/01/31 12:13:47;;;;;;;21.37;5.97;;;8.90;99.90;;;;;;5049328;28;20216;-66
2023/01/31 12:16:19;;;;;;;20.07;5.80;;;8.80;99.90;;;;;;5053867;28;20246;-66
2023/01/31 12:19:00;;;;;;;18.27;5.70;;;8.70;99.90;;;;;;5050732;28;20527;-65
2023/01/31 12:21:42;;;;;;;18.47;5.40;;;8.60;99.90;;;;;;5047540;28;20206;-65
2023/01/31 12:24:24;;;;;;;27.57;5.93;;;8.50;99.90;;;;;;5061334;28;20200;-66
2023/01/31 12:26:55;;;;;;;20.83;5.27;;;8.50;99.90;;;;;;5053702;28;20272;-66
2023/01/31 12:29:49;;;;;;;16.47;5.50;;;8.60;99.90;;;;;;5064667;28;20235;-66
2023/01/31 12:32:32;;;;;;;16.40;5.40;;;8.60;99.90;;;;;;5052341;28;20208;-66
2023/01/31 12:35:23;;;;;;;18.90;5.67;;;8.60;99.90;;;;;;5055341;28;20196;-66
2023/01/31 12:38:04;;;;;;;26.50;5.77;;;8.60;99.90;;;;;;5047953;28;20244;-66
2023/01/31 12:40:40;;;;;;;19.53;5.60;;;8.70;99.90;;;;;;5052312;28;20201;-66
2023/01/31 12:43:24;;;;;;;30.03;6.00;;;8.60;99.90;;;;;;5051919;28;20285;-66
2023/01/31 12:46:09;;;;;;;16.97;5.03;;;8.60;99.90;;;;;;5045672;28;20207;-66
2023/01/31 12:49:27;;;;;;;16.33;4.57;;;8.60;99.90;;;;;;5043887;28;20192;-65
2023/01/31 12:52:04;;;;;;;14.43;4.30;;;8.60;99.90;;;;;;5055418;28;20209;-66
2023/01/31 12:54:49;;;;;;;17.37;4.00;;;8.70;99.90;;;;;;5049166;28;20197;-66
2023/01/31 12:57:30;;;;;;;13.07;3.73;;;8.70;99.90;;;;;;5050028;28;20221;-66
2023/01/31 13:00:11;;;;;;;16.70;4.93;;;8.80;99.90;;;;;;5053649;28;20201;-66
2023/01/31 13:02:48;;;;;;;19.87;4.47;;;8.70;99.90;;;;;;5053414;28;20188;-66
2023/01/31 13:05:27;;;;;;;19.63;4.40;;;8.70;99.90;;;;;;5056729;28;20199;-66
2023/01/31 13:08:02;;;;;;;18.30;4.40;;;8.60;99.90;;;;;;5067680;28;20720;-66
2023/01/31 13:10:37;;;;;;;15.23;4.57;;;8.70;99.90;;;;;;5053561;28;20528;-66
2023/01/31 13:13:15;;;;;;;19.13;4.00;;;8.60;99.90;;;;;;5058703;28;20206;-66
2023/01/31 13:15:48;;;;;;;19.20;4.87;;;8.60;99.90;;;;;;5056558;28;20203;-66
2023/01/31 13:18:18;;;;;;;23.87;4.57;;;8.60;99.90;;;;;;5051613;28;20208;-66